Time;durP1;ratioP1;P1;durP2;ratioP2;P2;SDS_P1;SDS_P2;PMS_P1;PMS_P2;Temp;Humidity;BMP_temperature;BMP_pressure;BME280_temperature;BME280_humidity;BME280_pressure;Samples;Min_cycle;Max_cycle;Signal;HPM_P1;HPM_P2
2022/01/10 00:01:07;;;;;;;41.80;17.70;;;1.50;99.90;;;;;;4981683;28;20239;-76
2022/01/10 00:03:34;;;;;;;43.63;19.50;;;1.50;99.90;;;;;;4978188;28;20310;-75
2022/01/10 00:06:01;;;;;;;47.67;19.30;;;1.50;99.90;;;;;;4976468;28;20593;-76
2022/01/10 00:08:28;;;;;;;51.23;19.43;;;1.50;99.90;;;;;;4973221;28;20204;-75
2022/01/10 00:10:55;;;;;;;49.87;20.13;;;1.40;99.90;;;;;;4980574;28;20302;-75
2022/01/10 00:13:22;;;;;;;46.27;19.23;;;1.50;99.90;;;;;;4972273;28;20299;-76
2022/01/10 00:15:48;;;;;;;58.33;19.17;;;1.50;99.90;;;;;;4976211;28;20240;-76
2022/01/10 00:18:15;;;;;;;47.40;20.17;;;1.50;99.90;;;;;;4979911;28;20684;-76
2022/01/10 00:20:42;;;;;;;45.37;19.97;;;1.50;99.90;;;;;;4979157;28;20265;-75
2022/01/10 00:23:09;;;;;;;52.73;20.90;;;1.50;99.90;;;;;;4974360;28;20776;-75
2022/01/10 00:25:36;;;;;;;53.07;22.13;;;1.40;99.90;;;;;;4975488;28;20335;-75
2022/01/10 00:28:05;;;;;;;56.93;21.83;;;1.40;99.90;;;;;;4974542;28;20210;-75
2022/01/10 00:30:32;;;;;;;46.57;23.07;;;1.50;99.90;;;;;;4979102;28;20250;-75
2022/01/10 00:32:59;;;;;;;65.53;23.37;;;1.50;99.90;;;;;;4976439;28;20240;-76
2022/01/10 00:35:26;;;;;;;63.57;23.77;;;1.50;99.90;;;;;;4977612;28;20236;-76
2022/01/10 00:37:53;;;;;;;57.27;22.30;;;1.50;99.90;;;;;;4981472;28;20670;-75
2022/01/10 00:40:20;;;;;;;56.33;22.30;;;1.50;99.90;;;;;;4980717;28;20250;-75
2022/01/10 00:42:54;;;;;;;60.37;22.23;;;1.50;99.90;;;;;;4977157;28;20762;-75
2022/01/10 00:45:26;;;;;;;60.67;22.57;;;1.50;99.90;;;;;;4972207;28;20247;-76
2022/01/10 00:47:56;;;;;;;49.40;21.17;;;1.50;99.90;;;;;;4970520;28;20216;-75
2022/01/10 00:50:25;;;;;;;59.97;22.37;;;1.50;99.90;;;;;;4974856;28;20327;-75
2022/01/10 00:52:54;;;;;;;51.37;22.57;;;1.50;99.90;;;;;;4976138;28;20207;-75
2022/01/10 00:55:22;;;;;;;57.63;21.40;;;1.50;99.90;;;;;;4974807;28;20581;-76
2022/01/10 00:57:49;;;;;;;61.60;24.60;;;1.50;99.90;;;;;;4970936;28;20233;-75
2022/01/10 01:00:17;;;;;;;57.93;23.77;;;1.50;99.90;;;;;;4976810;28;20234;-76
2022/01/10 01:02:43;;;;;;;64.27;23.10;;;1.50;99.90;;;;;;4974879;28;20229;-76
2022/01/10 01:05:13;;;;;;;51.90;23.03;;;1.50;99.90;;;;;;4978523;28;20214;-75
2022/01/10 01:07:40;;;;;;;54.93;23.27;;;1.60;99.90;;;;;;4976578;28;20711;-74
2022/01/10 01:10:55;;;;;;;55.77;23.87;;;1.50;99.90;;;;;;4977160;28;20211;-76
2022/01/10 01:13:27;;;;;;;61.47;23.57;;;1.50;99.90;;;;;;4974958;28;20722;-76
2022/01/10 01:16:29;;;;;;;52.27;23.87;;;1.50;99.90;;;;;;4974070;28;20481;-75
2022/01/10 01:24:08;;;;;;;55.27;23.50;;;1.40;99.90;;;;;;4973526;28;20295;-76
2022/01/10 01:26:46;;;;;;;53.23;23.50;;;1.40;99.90;;;;;;4976684;28;20845;-76
2022/01/10 01:29:16;;;;;;;59.73;24.93;;;1.40;99.90;;;;;;4971199;28;20246;-76
2022/01/10 01:31:44;;;;;;;52.37;24.50;;;1.40;99.90;;;;;;4973517;28;20222;-76
2022/01/10 01:34:12;;;;;;;63.50;25.10;;;1.40;99.90;;;;;;4974348;28;20235;-75
2022/01/10 01:36:39;;;;;;;67.77;24.27;;;1.40;99.90;;;;;;4976243;28;20243;-74
2022/01/10 01:39:15;;;;;;;68.50;26.90;;;1.40;99.90;;;;;;4974831;28;20652;-77
2022/01/10 01:41:43;;;;;;;60.20;24.70;;;1.40;99.90;;;;;;4975538;28;20250;-76
2022/01/10 01:44:10;;;;;;;69.03;27.13;;;1.40;99.90;;;;;;4979482;28;20364;-76
2022/01/10 01:46:38;;;;;;;59.40;25.33;;;1.40;99.90;;;;;;4969921;28;20258;-74
2022/01/10 01:49:06;;;;;;;60.20;26.20;;;1.40;99.90;;;;;;4974287;28;20299;-76
2022/01/10 01:51:33;;;;;;;66.20;25.43;;;1.40;99.90;;;;;;4978898;28;20592;-76
2022/01/10 01:54:01;;;;;;;63.63;27.00;;;1.40;99.90;;;;;;4973882;28;20297;-74
2022/01/10 01:56:28;;;;;;;68.47;25.77;;;1.40;99.90;;;;;;4976770;28;20320;-76
2022/01/10 01:58:56;;;;;;;55.27;24.47;;;1.40;99.90;;;;;;4969651;28;20214;-77
2022/01/10 02:01:25;;;;;;;69.23;25.40;;;1.40;99.90;;;;;;4976905;28;20199;-75
2022/01/10 02:03:52;;;;;;;64.10;27.67;;;1.40;99.90;;;;;;4968693;28;20218;-75
2022/01/10 02:06:19;;;;;;;57.10;24.03;;;1.30;99.90;;;;;;4976823;28;20242;-76
2022/01/10 02:08:47;;;;;;;70.73;26.50;;;1.30;99.90;;;;;;4975671;28;20594;-76
2022/01/10 02:11:14;;;;;;;62.43;26.57;;;1.30;99.90;;;;;;4970147;28;20239;-74
2022/01/10 02:13:42;;;;;;;57.53;24.90;;;1.30;99.90;;;;;;4967670;28;20206;-75
2022/01/10 02:16:15;;;;;;;53.23;25.33;;;1.30;99.90;;;;;;4977660;28;20269;-75
2022/01/10 02:18:43;;;;;;;63.77;25.60;;;1.30;99.90;;;;;;4972917;28;20251;-77
2022/01/10 02:21:10;;;;;;;63.17;26.97;;;1.30;99.90;;;;;;4981198;28;20218;-75
2022/01/10 02:23:37;;;;;;;67.97;26.03;;;1.30;99.90;;;;;;4983609;28;20211;-76
2022/01/10 02:26:05;;;;;;;55.87;25.07;;;1.30;99.90;;;;;;4981680;28;20303;-76
2022/01/10 02:28:32;;;;;;;78.73;26.03;;;1.20;99.90;;;;;;4976812;28;20242;-76
2022/01/10 02:30:59;;;;;;;59.97;25.13;;;1.20;99.90;;;;;;4976808;28;20242;-76
2022/01/10 02:33:30;;;;;;;71.93;27.07;;;1.10;99.90;;;;;;4969904;28;20240;-74
2022/01/10 02:36:14;;;;;;;62.37;24.40;;;1.10;99.90;;;;;;4973701;28;20354;-75
2022/01/10 02:38:49;;;;;;;74.60;26.63;;;1.10;99.90;;;;;;4973226;28;20895;-76
2022/01/10 02:41:24;;;;;;;63.63;28.90;;;1.10;99.90;;;;;;4976615;28;20206;-75
2022/01/10 02:43:53;;;;;;;64.77;25.23;;;1.10;99.90;;;;;;4969321;28;20217;-75
2022/01/10 02:46:20;;;;;;;58.03;25.07;;;1.10;99.90;;;;;;4973603;28;20210;-75
2022/01/10 02:48:48;;;;;;;68.37;25.73;;;1.00;99.90;;;;;;4971443;28;20274;-76
2022/01/10 02:51:15;;;;;;;59.63;27.47;;;1.10;99.90;;;;;;4973248;28;20218;-75
2022/01/10 02:53:42;;;;;;;63.87;26.63;;;1.10;99.90;;;;;;4970427;28;20298;-75
2022/01/10 02:56:09;;;;;;;68.03;24.40;;;1.00;99.90;;;;;;4992450;28;20273;-74
2022/01/10 02:58:35;;;;;;;69.97;27.83;;;1.00;99.90;;;;;;4973555;28;20339;-74
2022/01/10 03:01:03;;;;;;;68.97;28.63;;;1.00;99.90;;;;;;4973878;28;20225;-76
2022/01/10 03:03:30;;;;;;;84.13;31.20;;;1.00;99.90;;;;;;4975312;28;20229;-76
2022/01/10 03:06:01;;;;;;;72.50;30.07;;;1.00;99.90;;;;;;4972204;28;20305;-75
2022/01/10 03:08:28;;;;;;;65.20;29.07;;;1.00;99.90;;;;;;4970934;28;20218;-75
2022/01/10 03:10:55;;;;;;;70.00;28.77;;;1.00;99.90;;;;;;4975183;28;20230;-76
2022/01/10 03:13:22;;;;;;;70.10;29.93;;;1.00;99.90;;;;;;4970721;28;20194;-75
2022/01/10 03:15:49;;;;;;;69.07;27.63;;;1.00;99.90;;;;;;4972321;28;20285;-76
2022/01/10 03:18:16;;;;;;;79.40;29.47;;;1.00;99.90;;;;;;4971713;28;20875;-75
2022/01/10 03:20:43;;;;;;;71.23;28.90;;;1.00;99.90;;;;;;4978592;28;20226;-76
2022/01/10 03:23:10;;;;;;;81.27;29.83;;;1.00;99.90;;;;;;4976395;28;20199;-76
2022/01/10 03:25:36;;;;;;;78.90;30.27;;;1.00;99.90;;;;;;4976195;28;20229;-75
2022/01/10 03:28:06;;;;;;;65.17;29.20;;;1.00;99.90;;;;;;4981568;28;20681;-75
2022/01/10 03:30:34;;;;;;;75.23;30.27;;;1.00;99.90;;;;;;4973816;28;20616;-75
2022/01/10 03:33:03;;;;;;;68.83;29.00;;;1.00;99.90;;;;;;4970590;28;20247;-75
2022/01/10 03:35:31;;;;;;;71.37;28.53;;;1.00;99.90;;;;;;4966160;28;20240;-74
2022/01/10 03:37:58;;;;;;;63.77;27.37;;;0.90;99.90;;;;;;4972347;28;20225;-75
2022/01/10 03:40:25;;;;;;;68.03;27.67;;;0.90;99.90;;;;;;4973868;28;20223;-75
2022/01/10 03:42:52;;;;;;;55.87;25.77;;;0.90;99.90;;;;;;4986634;28;20231;-75
2022/01/10 03:45:19;;;;;;;66.40;27.03;;;0.90;99.90;;;;;;4978278;28;20315;-74
2022/01/10 03:47:46;;;;;;;57.60;25.53;;;0.90;99.90;;;;;;4981651;28;20226;-75
2022/01/10 03:50:13;;;;;;;55.23;23.50;;;0.80;99.90;;;;;;4976951;28;20569;-76
2022/01/10 03:52:42;;;;;;;64.60;24.50;;;0.80;99.90;;;;;;4978706;28;20214;-76
2022/01/10 03:55:10;;;;;;;49.27;24.67;;;0.80;99.90;;;;;;4986910;28;20303;-76
2022/01/10 03:57:36;;;;;;;57.50;25.17;;;0.70;99.90;;;;;;4983350;28;20215;-76
2022/01/10 04:00:08;;;;;;;64.83;25.67;;;0.70;99.90;;;;;;4977104;28;20249;-75
2022/01/10 04:02:37;;;;;;;55.67;25.97;;;0.70;99.90;;;;;;4978722;28;20655;-76
2022/01/10 04:05:07;;;;;;;58.87;26.07;;;0.70;99.90;;;;;;4984638;28;20222;-75
2022/01/10 04:07:35;;;;;;;67.93;26.97;;;0.60;99.90;;;;;;4980731;28;20298;-76
2022/01/10 04:10:04;;;;;;;52.43;25.27;;;0.60;99.90;;;;;;4984571;28;20241;-75
2022/01/10 04:12:31;;;;;;;58.13;24.93;;;0.60;99.90;;;;;;4976993;28;20667;-75
2022/01/10 04:14:58;;;;;;;45.00;24.73;;;0.50;99.90;;;;;;4978025;28;20215;-76
2022/01/10 04:17:25;;;;;;;46.60;23.90;;;0.50;99.90;;;;;;4981742;28;20234;-75
2022/01/10 04:19:52;;;;;;;65.37;25.93;;;0.50;99.90;;;;;;4982027;28;20219;-76
2022/01/10 04:22:19;;;;;;;63.67;29.17;;;0.50;99.90;;;;;;4980118;28;20254;-75
2022/01/10 04:24:47;;;;;;;60.20;27.80;;;0.50;99.90;;;;;;4977757;28;20227;-75
2022/01/10 04:27:14;;;;;;;62.10;27.57;;;0.40;99.90;;;;;;4980313;28;20214;-76
2022/01/10 04:29:40;;;;;;;60.07;29.20;;;0.40;99.90;;;;;;4975960;28;20290;-76
2022/01/10 04:32:10;;;;;;;54.43;26.53;;;0.50;99.90;;;;;;4978291;28;20243;-75
2022/01/10 04:34:38;;;;;;;57.77;28.00;;;0.40;99.90;;;;;;4978125;28;20216;-76
2022/01/10 04:37:06;;;;;;;48.17;25.90;;;0.50;99.90;;;;;;4982312;28;20339;-75
2022/01/10 04:39:33;;;;;;;58.07;27.47;;;0.40;99.90;;;;;;4975535;28;20294;-76
2022/01/10 04:42:00;;;;;;;62.97;29.77;;;0.40;99.90;;;;;;4975097;28;20338;-76
2022/01/10 04:44:27;;;;;;;71.03;31.50;;;0.40;99.90;;;;;;4980209;28;20204;-77
2022/01/10 04:46:53;;;;;;;82.50;33.10;;;0.40;99.90;;;;;;4977233;28;20225;-75
2022/01/10 04:49:26;;;;;;;74.83;31.17;;;0.40;99.90;;;;;;4978079;28;20298;-75
2022/01/10 04:51:54;;;;;;;71.70;32.13;;;0.40;99.90;;;;;;4980157;28;20215;-75
2022/01/10 04:54:21;;;;;;;88.43;34.10;;;0.40;99.90;;;;;;4982945;28;20260;-76
2022/01/10 04:56:47;;;;;;;78.80;33.67;;;0.40;99.90;;;;;;4974898;28;20234;-76
2022/01/10 04:59:15;;;;;;;78.90;33.97;;;0.40;99.90;;;;;;4978430;28;20226;-74
2022/01/10 05:01:42;;;;;;;82.00;34.40;;;0.40;99.90;;;;;;4979962;28;20234;-76
2022/01/10 05:04:10;;;;;;;74.97;34.67;;;0.40;99.90;;;;;;4973169;28;20215;-76
2022/01/10 05:06:37;;;;;;;71.17;33.13;;;0.40;99.90;;;;;;4977256;28;20304;-75
2022/01/10 05:09:04;;;;;;;75.93;35.53;;;0.40;99.90;;;;;;4971578;28;20231;-76
2022/01/10 05:11:33;;;;;;;84.40;37.27;;;0.40;99.90;;;;;;4975822;28;20782;-76
2022/01/10 05:14:00;;;;;;;88.03;36.37;;;0.30;99.90;;;;;;4971153;28;20216;-76
2022/01/10 05:16:26;;;;;;;83.47;36.53;;;0.40;99.90;;;;;;4979921;28;20240;-76
2022/01/10 05:18:53;;;;;;;79.00;35.07;;;0.40;99.90;;;;;;4980775;28;20757;-76
2022/01/10 05:21:21;;;;;;;71.47;33.97;;;0.40;99.90;;;;;;4972899;28;20202;-76
2022/01/10 05:23:48;;;;;;;74.80;35.47;;;0.40;99.90;;;;;;4977393;28;20344;-76
2022/01/10 05:26:15;;;;;;;76.03;35.77;;;0.30;99.90;;;;;;4973386;28;20291;-75
2022/01/10 05:28:41;;;;;;;79.33;36.83;;;0.40;99.90;;;;;;4973545;28;20212;-75
2022/01/10 05:31:08;;;;;;;100.07;38.73;;;0.40;99.90;;;;;;4975228;28;20254;-76
2022/01/10 05:33:35;;;;;;;83.47;38.23;;;0.30;99.90;;;;;;4979302;28;20323;-76
2022/01/10 05:36:02;;;;;;;86.77;37.23;;;0.30;99.90;;;;;;4973832;28;20694;-76
2022/01/10 05:38:31;;;;;;;89.27;37.57;;;0.30;99.90;;;;;;4975390;28;20290;-75
2022/01/10 05:40:58;;;;;;;78.90;36.40;;;0.30;99.90;;;;;;4976586;28;20219;-75
2022/01/10 05:43:25;;;;;;;87.90;37.27;;;0.30;99.90;;;;;;4977794;28;20312;-76
2022/01/10 05:45:52;;;;;;;86.27;37.43;;;0.30;99.90;;;;;;4973894;28;20198;-76
2022/01/10 05:48:26;;;;;;;93.70;38.67;;;0.50;99.90;;;;;;4980999;28;21146;-76
2022/01/10 05:50:53;;;;;;;85.50;41.17;;;0.30;99.90;;;;;;4976217;28;20646;-76
2022/01/10 05:53:21;;;;;;;96.57;39.37;;;0.30;99.90;;;;;;4978227;28;20207;-77
2022/01/10 05:55:48;;;;;;;83.40;38.40;;;0.30;99.90;;;;;;4981095;28;20215;-77
2022/01/10 05:58:16;;;;;;;91.97;39.80;;;0.30;99.90;;;;;;4979318;28;20219;-77
2022/01/10 06:00:43;;;;;;;83.40;37.40;;;0.40;99.90;;;;;;4974264;28;20193;-76
2022/01/10 06:03:10;;;;;;;89.07;40.27;;;0.30;99.90;;;;;;4977788;28;20326;-75
2022/01/10 06:05:39;;;;;;;97.40;40.57;;;0.30;99.90;;;;;;4971801;28;20217;-76
2022/01/10 06:08:08;;;;;;;92.40;41.13;;;0.40;99.90;;;;;;4970561;28;20227;-76
2022/01/10 06:10:36;;;;;;;94.33;39.00;;;0.30;99.90;;;;;;4976379;28;20626;-76
2022/01/10 06:13:02;;;;;;;76.80;36.73;;;0.40;99.90;;;;;;4971387;28;20305;-76
2022/01/10 06:15:29;;;;;;;78.80;36.73;;;0.40;99.90;;;;;;4974503;28;20309;-77
2022/01/10 06:17:56;;;;;;;93.00;37.93;;;0.40;99.90;;;;;;4968159;28;20287;-76
2022/01/10 06:20:24;;;;;;;95.97;39.57;;;0.30;99.90;;;;;;4974542;28;20210;-77
2022/01/10 06:22:50;;;;;;;93.07;37.83;;;0.30;99.90;;;;;;4972789;28;20233;-76
2022/01/10 06:25:21;;;;;;;89.57;38.97;;;0.40;99.90;;;;;;4978736;28;20576;-77
2022/01/10 06:27:48;;;;;;;114.43;41.63;;;0.40;99.90;;;;;;4982446;28;20221;-76
2022/01/10 06:30:15;;;;;;;91.90;40.77;;;0.40;99.90;;;;;;4974860;28;20543;-77
2022/01/10 06:32:42;;;;;;;86.67;39.10;;;0.40;99.90;;;;;;4978421;28;20322;-77
2022/01/10 06:35:09;;;;;;;114.73;42.07;;;0.40;99.90;;;;;;4975988;28;20205;-76
2022/01/10 06:37:36;;;;;;;94.10;40.70;;;0.50;99.90;;;;;;4978941;28;20242;-76
2022/01/10 06:40:05;;;;;;;110.13;42.13;;;0.50;99.90;;;;;;4971171;28;20658;-77
2022/01/10 06:42:32;;;;;;;102.10;40.77;;;0.60;99.90;;;;;;4973212;28;20207;-77
2022/01/10 06:44:59;;;;;;;98.07;42.73;;;0.60;99.90;;;;;;4972010;28;20258;-77
2022/01/10 06:47:26;;;;;;;111.87;43.33;;;0.60;99.90;;;;;;4977095;28;20306;-77
2022/01/10 06:49:52;;;;;;;104.27;42.37;;;0.70;99.90;;;;;;4972496;28;20214;-77
2022/01/10 06:52:19;;;;;;;102.07;41.53;;;0.80;99.90;;;;;;4970431;28;20310;-77
2022/01/10 06:54:46;;;;;;;86.60;39.37;;;0.80;99.90;;;;;;4974405;28;20221;-76
2022/01/10 06:57:12;;;;;;;93.67;40.47;;;0.80;99.90;;;;;;4971192;28;20219;-76
2022/01/10 06:59:39;;;;;;;84.23;37.47;;;0.80;99.90;;;;;;4973095;28;20242;-77
2022/01/10 07:02:06;;;;;;;90.03;38.27;;;0.80;99.90;;;;;;4971170;28;20247;-76
2022/01/10 07:04:33;;;;;;;81.13;37.30;;;0.80;99.90;;;;;;4976293;28;20229;-78
2022/01/10 07:07:00;;;;;;;82.07;37.13;;;0.80;99.90;;;;;;4973311;28;20204;-78
2022/01/10 07:09:27;;;;;;;86.33;35.77;;;0.70;99.90;;;;;;4972668;28;20245;-76
2022/01/10 07:11:54;;;;;;;81.23;37.13;;;0.80;99.90;;;;;;4969802;28;20226;-77
2022/01/10 07:14:21;;;;;;;80.03;36.63;;;0.80;99.90;;;;;;4969135;28;20211;-76
2022/01/10 07:16:49;;;;;;;88.07;36.77;;;0.80;99.90;;;;;;4971457;28;20778;-77
2022/01/10 07:19:17;;;;;;;82.23;34.20;;;0.80;99.90;;;;;;4973194;28;20587;-77
2022/01/10 07:21:44;;;;;;;88.87;33.67;;;0.80;99.90;;;;;;4974848;28;20273;-78
2022/01/10 07:24:11;;;;;;;80.53;33.50;;;0.90;99.90;;;;;;4972936;28;20281;-77
2022/01/10 07:26:38;;;;;;;86.80;34.67;;;0.90;99.90;;;;;;4975084;28;20293;-77
2022/01/10 07:29:07;;;;;;;79.47;36.13;;;0.90;99.90;;;;;;4975053;28;20323;-77
2022/01/10 07:31:35;;;;;;;79.37;35.07;;;0.90;99.90;;;;;;4972660;28;20246;-75
2022/01/10 07:34:03;;;;;;;80.73;36.87;;;0.90;99.90;;;;;;4973700;28;20571;-77
2022/01/10 07:36:30;;;;;;;89.20;35.70;;;1.00;99.90;;;;;;4976312;28;20339;-76
2022/01/10 07:38:57;;;;;;;82.97;37.80;;;1.10;99.90;;;;;;4974767;28;20546;-76
2022/01/10 07:41:24;;;;;;;85.27;38.40;;;1.10;99.90;;;;;;4977891;28;20208;-76
2022/01/10 07:43:51;;;;;;;91.33;39.83;;;1.10;99.90;;;;;;4975633;28;20351;-75
2022/01/10 07:46:19;;;;;;;90.23;38.73;;;1.10;99.90;;;;;;4975608;28;20261;-77
2022/01/10 07:48:47;;;;;;;88.13;37.87;;;1.10;99.90;;;;;;4975980;28;20314;-76
2022/01/10 07:51:14;;;;;;;99.47;38.10;;;1.10;99.90;;;;;;4979277;28;20607;-76
2022/01/10 07:53:42;;;;;;;94.67;41.77;;;1.20;99.90;;;;;;4976894;28;20270;-77
2022/01/10 07:56:09;;;;;;;100.43;40.00;;;1.20;99.90;;;;;;4976150;28;20299;-75
2022/01/10 07:58:36;;;;;;;90.10;40.20;;;1.20;99.90;;;;;;4973076;28;20274;-75
2022/01/10 08:01:04;;;;;;;105.43;41.33;;;1.20;99.90;;;;;;4977050;28;20680;-75
2022/01/10 08:03:32;;;;;;;95.13;41.30;;;1.30;99.90;;;;;;4975758;28;20285;-75
2022/01/10 08:05:59;;;;;;;99.50;40.80;;;1.30;99.90;;;;;;4971574;28;20212;-75
2022/01/10 08:08:26;;;;;;;108.27;42.17;;;1.30;99.90;;;;;;4971347;28;20607;-75
2022/01/10 08:10:54;;;;;;;108.10;42.60;;;1.30;99.90;;;;;;4974482;28;20204;-75
2022/01/10 08:13:21;;;;;;;90.63;40.97;;;1.40;99.90;;;;;;4975108;28;20212;-76
2022/01/10 08:15:47;;;;;;;106.70;44.43;;;1.40;99.90;;;;;;4972860;28;20230;-75
2022/01/10 08:18:14;;;;;;;100.10;42.37;;;1.40;99.90;;;;;;4975427;28;20238;-74
2022/01/10 08:20:41;;;;;;;112.57;44.37;;;1.40;99.90;;;;;;4975259;28;20213;-76
2022/01/10 08:23:11;;;;;;;108.47;43.53;;;1.40;99.90;;;;;;4973361;28;20332;-74
2022/01/10 08:25:38;;;;;;;110.00;43.20;;;1.50;99.90;;;;;;4977062;28;20315;-75
2022/01/10 08:28:05;;;;;;;117.97;45.33;;;1.50;99.90;;;;;;4971171;28;20205;-76
2022/01/10 08:30:32;;;;;;;110.40;46.00;;;1.60;99.90;;;;;;4969756;28;20196;-75
2022/01/10 08:32:58;;;;;;;96.77;43.23;;;1.60;99.90;;;;;;4972491;28;20231;-74
2022/01/10 08:35:25;;;;;;;123.40;45.27;;;1.60;99.90;;;;;;4970893;28;20254;-77
2022/01/10 08:37:52;;;;;;;117.23;45.17;;;1.60;99.90;;;;;;4971024;28;20319;-75
2022/01/10 08:40:19;;;;;;;119.93;47.77;;;1.60;99.90;;;;;;4969347;28;20214;-76
2022/01/10 08:42:46;;;;;;;119.73;47.30;;;1.60;99.90;;;;;;4968555;28;20196;-75
2022/01/10 08:45:12;;;;;;;107.23;43.67;;;1.60;99.90;;;;;;4973949;28;20326;-76
2022/01/10 08:47:39;;;;;;;117.37;44.13;;;1.60;99.90;;;;;;4972212;28;20693;-75
2022/01/10 08:50:09;;;;;;;114.10;46.60;;;1.60;99.90;;;;;;4973612;28;20225;-75
2022/01/10 08:52:37;;;;;;;109.47;45.17;;;1.60;99.90;;;;;;4972181;28;20211;-75
2022/01/10 08:55:04;;;;;;;112.90;46.47;;;1.60;99.90;;;;;;4973304;28;20247;-78
2022/01/10 08:57:31;;;;;;;119.60;47.27;;;1.60;99.90;;;;;;4977228;28;20263;-75
2022/01/10 08:59:58;;;;;;;119.37;45.53;;;1.60;99.90;;;;;;4975974;28;20250;-74
2022/01/10 09:02:25;;;;;;;108.33;45.70;;;1.60;99.90;;;;;;4980415;28;20218;-75
2022/01/10 09:04:53;;;;;;;122.23;47.17;;;1.60;99.90;;;;;;4970742;28;20211;-75
2022/01/10 09:07:19;;;;;;;125.80;48.83;;;1.60;99.90;;;;;;4968993;28;20621;-74
2022/01/10 09:09:46;;;;;;;133.73;49.77;;;1.60;99.90;;;;;;4973262;28;20286;-75
2022/01/10 09:12:14;;;;;;;136.30;53.87;;;1.60;99.90;;;;;;4969743;28;20232;-76
2022/01/10 09:14:41;;;;;;;151.80;53.77;;;1.60;99.90;;;;;;4971120;28;20261;-75
2022/01/10 09:17:08;;;;;;;159.97;55.53;;;1.60;99.90;;;;;;4970579;28;20241;-75
2022/01/10 09:19:35;;;;;;;149.30;55.13;;;1.60;99.90;;;;;;4968434;28;20258;-75
2022/01/10 09:22:03;;;;;;;164.60;58.70;;;1.60;99.90;;;;;;4968631;28;20294;-74
2022/01/10 09:24:30;;;;;;;146.87;56.73;;;1.70;99.90;;;;;;4968594;28;20200;-76
2022/01/10 09:26:56;;;;;;;166.67;59.20;;;1.70;99.90;;;;;;4970535;28;20330;-75
2022/01/10 09:29:25;;;;;;;176.70;61.00;;;1.70;99.90;;;;;;4966681;28;20204;-74
2022/01/10 09:31:52;;;;;;;178.30;61.90;;;1.70;99.90;;;;;;4969361;28;20335;-75
2022/01/10 09:34:19;;;;;;;183.13;65.23;;;1.80;99.90;;;;;;4973087;28;20763;-75
2022/01/10 09:36:45;;;;;;;187.43;64.00;;;1.90;99.90;;;;;;4970322;28;20648;-74
2022/01/10 09:39:13;;;;;;;184.40;63.63;;;2.00;99.90;;;;;;4968505;28;20200;-75
2022/01/10 09:41:40;;;;;;;186.93;63.30;;;2.00;99.90;;;;;;4969196;28;20201;-75
2022/01/10 09:44:07;;;;;;;181.37;64.10;;;2.10;99.90;;;;;;4974811;28;20236;-76
2022/01/10 09:46:35;;;;;;;201.10;64.57;;;2.10;99.90;;;;;;4973828;28;20240;-77
2022/01/10 09:49:04;;;;;;;188.77;66.13;;;2.30;99.90;;;;;;4970528;28;20278;-75
2022/01/10 09:51:32;;;;;;;207.03;67.40;;;2.40;99.90;;;;;;4968908;28;20285;-74
2022/01/10 09:54:01;;;;;;;203.77;67.20;;;2.40;99.90;;;;;;4968855;28;20239;-75
2022/01/10 09:56:29;;;;;;;184.60;63.77;;;2.50;99.90;;;;;;4972934;28;20244;-74
2022/01/10 09:58:58;;;;;;;192.73;67.53;;;2.50;99.90;;;;;;4973127;28;20638;-75
2022/01/10 10:01:27;;;;;;;189.37;68.03;;;2.60;99.90;;;;;;4967679;28;20229;-74
2022/01/10 10:03:58;;;;;;;189.40;64.77;;;2.60;99.90;;;;;;4971512;28;20272;-76
2022/01/10 10:06:31;;;;;;;194.80;68.73;;;2.70;99.90;;;;;;4970605;28;20705;-75
2022/01/10 10:09:05;;;;;;;181.70;65.93;;;2.70;99.90;;;;;;4967595;28;20205;-74
2022/01/10 10:11:39;;;;;;;185.83;66.60;;;2.80;99.90;;;;;;4969661;28;20575;-75
2022/01/10 10:14:08;;;;;;;174.97;65.13;;;2.80;99.90;;;;;;4972866;28;20208;-75
2022/01/10 10:16:39;;;;;;;175.30;64.57;;;2.90;99.90;;;;;;4970218;28;20212;-74
2022/01/10 10:19:07;;;;;;;176.70;66.03;;;2.90;99.90;;;;;;4973992;28;20395;-75
2022/01/10 10:21:35;;;;;;;171.17;64.93;;;2.90;99.90;;;;;;4975531;28;20263;-76
2022/01/10 10:24:07;;;;;;;175.80;64.47;;;2.90;99.90;;;;;;4972613;28;20217;-75
2022/01/10 10:26:34;;;;;;;189.87;66.67;;;2.90;99.90;;;;;;4969239;28;20201;-74
2022/01/10 10:29:01;;;;;;;176.00;66.67;;;3.00;99.90;;;;;;4971744;28;20702;-76
2022/01/10 10:31:31;;;;;;;186.00;64.83;;;3.00;99.90;;;;;;4974923;28;20208;-75
2022/01/10 10:34:04;;;;;;;186.67;69.70;;;3.10;99.90;;;;;;4968570;28;20295;-76
2022/01/10 10:36:34;;;;;;;181.47;68.80;;;3.10;99.90;;;;;;4973872;28;20302;-75
2022/01/10 10:39:06;;;;;;;174.97;66.80;;;3.10;99.90;;;;;;4976711;28;20224;-76
2022/01/10 10:41:34;;;;;;;191.20;73.73;;;3.20;99.90;;;;;;4972863;28;20750;-76
2022/01/10 10:44:02;;;;;;;241.17;92.67;;;3.20;99.90;;;;;;4972209;28;20328;-74
2022/01/10 10:46:30;;;;;;;274.80;102.27;;;3.20;99.90;;;;;;4973018;28;20288;-74
2022/01/10 10:49:05;;;;;;;275.20;105.23;;;3.30;99.90;;;;;;4978294;28;20231;-74
2022/01/10 10:51:36;;;;;;;269.13;107.60;;;3.30;99.90;;;;;;4977793;28;20285;-75
2022/01/10 10:54:07;;;;;;;279.47;107.80;;;3.30;99.90;;;;;;4975545;28;20206;-74
2022/01/10 10:56:36;;;;;;;216.77;89.57;;;3.30;99.90;;;;;;4981193;28;20224;-75
2022/01/10 10:59:07;;;;;;;223.93;82.47;;;3.40;99.90;;;;;;4971188;28;20284;-75
2022/01/10 11:01:38;;;;;;;219.00;81.17;;;3.40;99.90;;;;;;4977002;28;20685;-75
2022/01/10 11:04:09;;;;;;;217.10;81.43;;;3.50;99.90;;;;;;4983135;28;20210;-75
2022/01/10 11:06:37;;;;;;;224.37;81.03;;;3.60;99.90;;;;;;4979859;28;20284;-75
2022/01/10 11:09:09;;;;;;;206.60;75.80;;;3.60;99.90;;;;;;4978618;28;20636;-74
2022/01/10 11:11:36;;;;;;;206.20;77.00;;;3.60;99.90;;;;;;4977689;28;20202;-75
2022/01/10 11:14:05;;;;;;;220.53;75.77;;;3.60;99.90;;;;;;4975052;28;20289;-75
2022/01/10 11:16:37;;;;;;;224.13;79.77;;;3.70;99.90;;;;;;4977323;28;20245;-74
2022/01/10 11:19:15;;;;;;;227.80;78.57;;;3.70;99.90;;;;;;4975728;28;20227;-74
2022/01/10 11:21:46;;;;;;;213.80;75.20;;;3.70;99.90;;;;;;4970656;28;20613;-74
2022/01/10 11:24:52;;;;;;;200.00;73.30;;;3.80;99.90;;;;;;4974335;28;20313;-74
2022/01/10 11:27:32;;;;;;;188.27;70.27;;;3.80;99.90;;;;;;4974331;28;20308;-75
2022/01/10 11:30:24;;;;;;;201.10;73.93;;;3.80;99.90;;;;;;4975499;28;20214;-76
2022/01/10 11:33:04;;;;;;;205.20;73.23;;;3.80;99.90;;;;;;4977101;28;20276;-74
2022/01/10 11:35:56;;;;;;;184.13;70.10;;;3.80;99.90;;;;;;4977343;28;20301;-75
2022/01/10 11:38:29;;;;;;;178.67;71.20;;;3.80;99.90;;;;;;4978742;28;20240;-75
2022/01/10 11:40:59;;;;;;;195.93;74.93;;;3.80;99.90;;;;;;4971793;28;20715;-75
2022/01/10 11:43:33;;;;;;;199.33;75.20;;;3.80;99.90;;;;;;4976949;28;20294;-75
2022/01/10 11:46:16;;;;;;;198.50;73.97;;;3.80;99.90;;;;;;4976461;28;20280;-74
2022/01/10 11:48:58;;;;;;;209.20;78.13;;;3.80;99.90;;;;;;4976655;28;20224;-75
2022/01/10 11:51:31;;;;;;;213.57;75.53;;;3.80;99.90;;;;;;4974600;28;20201;-76
2022/01/10 11:54:07;;;;;;;197.23;78.57;;;3.80;99.90;;;;;;4976952;28;20211;-74
2022/01/10 11:56:37;;;;;;;204.13;80.53;;;3.90;99.90;;;;;;4975192;28;20207;-75
2022/01/10 11:59:08;;;;;;;192.13;78.10;;;3.90;99.90;;;;;;4972931;28;20565;-76
2022/01/10 12:01:38;;;;;;;206.30;80.23;;;3.90;99.90;;;;;;4975307;28;20206;-75
2022/01/10 12:04:05;;;;;;;193.93;78.10;;;3.90;99.90;;;;;;4975430;28;20295;-77
2022/01/10 12:06:32;;;;;;;210.30;80.20;;;4.00;99.90;;;;;;4973153;28;20207;-74
2022/01/10 12:08:59;;;;;;;221.00;82.40;;;4.00;99.90;;;;;;4972890;28;20215;-74
2022/01/10 12:11:28;;;;;;;208.33;83.97;;;4.00;99.90;;;;;;4978373;28;20210;-75
2022/01/10 12:13:55;;;;;;;216.83;83.97;;;4.00;99.90;;;;;;4973459;28;20204;-75
2022/01/10 12:16:23;;;;;;;210.33;84.53;;;4.10;99.90;;;;;;4975998;28;20264;-75
2022/01/10 12:18:49;;;;;;;229.20;84.17;;;4.10;99.90;;;;;;4981274;28;20819;-76
2022/01/10 12:21:16;;;;;;;201.30;84.40;;;4.10;99.90;;;;;;4975749;28;20657;-75
2022/01/10 12:23:44;;;;;;;213.57;85.57;;;4.10;99.90;;;;;;4973895;28;20208;-74
2022/01/10 12:26:11;;;;;;;215.80;84.70;;;4.10;99.90;;;;;;4974353;28;20278;-74
2022/01/10 12:28:38;;;;;;;230.07;86.27;;;4.20;99.90;;;;;;4979124;28;20243;-74
2022/01/10 12:31:06;;;;;;;218.93;82.50;;;4.20;99.90;;;;;;4971720;28;20204;-75
2022/01/10 12:33:33;;;;;;;213.93;87.80;;;4.20;99.90;;;;;;4976325;28;20244;-75
2022/01/10 12:36:02;;;;;;;222.70;83.87;;;4.20;99.90;;;;;;4976133;28;20216;-75
2022/01/10 12:38:29;;;;;;;212.33;85.67;;;4.30;99.90;;;;;;4978275;28;20762;-76
2022/01/10 12:40:56;;;;;;;211.63;85.30;;;4.30;99.90;;;;;;4976086;28;20232;-74
2022/01/10 12:43:22;;;;;;;203.03;83.50;;;4.30;99.90;;;;;;4978227;28;20278;-75
2022/01/10 12:45:50;;;;;;;200.13;81.93;;;4.30;99.90;;;;;;4979559;28;20207;-75